Time;durP1;ratioP1;P1;durP2;ratioP2;P2;SDS_P1;SDS_P2;PMS_P1;PMS_P2;Temp;Humidity;BMP_temperature;BMP_pressure;BME280_temperature;BME280_humidity;BME280_pressure;Samples;Min_cycle;Max_cycle;Signal;HPM_P1;HPM_P2
2021/05/11 00:01:58;;;;;;;3.85;2.42;;;;;;;17.66;62.48;101039.28;6140184;28;20235;-49
2021/05/11 00:05:18;;;;;;;5.75;2.67;;;;;;;17.64;62.30;101029.69;6134241;28;20236;-49
2021/05/11 00:08:39;;;;;;;4.68;3.08;;;;;;;17.49;62.64;101023.22;6136241;28;20239;-52
2021/05/11 00:11:59;;;;;;;3.45;2.25;;;;;;;17.07;63.94;101021.09;6136094;28;20932;-50
2021/05/11 00:15:22;;;;;;;2.58;2.33;;;;;;;17.31;63.09;101017.66;6130417;28;20239;-53
2021/05/11 00:18:42;;;;;;;4.80;2.50;;;;;;;17.28;63.16;101038.81;6137972;28;20227;-50
2021/05/11 00:22:03;;;;;;;3.13;2.40;;;;;;;17.31;62.98;101032.56;6139422;28;20234;-49
2021/05/11 00:25:23;;;;;;;3.78;2.25;;;;;;;17.37;62.12;101021.84;6138515;28;20673;-50
2021/05/11 00:28:43;;;;;;;3.13;2.33;;;;;;;17.29;62.90;100997.53;6139676;28;20562;-48
2021/05/11 00:32:05;;;;;;;5.07;2.42;;;;;;;17.17;63.41;101006.72;6137796;28;20231;-48
2021/05/11 00:35:25;;;;;;;2.53;2.30;;;;;;;16.77;64.76;100999.22;6134873;28;20256;-52
2021/05/11 00:38:45;;;;;;;3.10;2.58;;;;;;;17.15;63.36;101002.44;6127214;28;20266;-48
2021/05/11 00:42:06;;;;;;;2.83;2.30;;;;;;;17.15;63.52;101003.28;6141795;28;20611;-51
2021/05/11 00:45:26;;;;;;;5.40;2.57;;;;;;;17.30;63.08;101009.81;6142742;28;20250;-48
2021/05/11 00:48:48;;;;;;;3.47;2.40;;;;;;;17.17;63.69;101025.13;6145317;28;20342;-52
2021/05/11 00:52:08;;;;;;;3.58;2.63;;;;;;;16.13;67.02;101034.47;6144453;28;20259;-48
2021/05/11 00:55:29;;;;;;;3.77;2.67;;;;;;;16.98;64.21;100987.19;6145538;28;20708;-51
2021/05/11 00:58:49;;;;;;;3.50;2.80;;;;;;;16.93;64.23;100974.19;6143684;28;20683;-46
2021/05/11 01:02:11;;;;;;;6.23;2.80;;;;;;;16.82;64.30;100992.09;6149067;28;20231;-51
2021/05/11 01:05:32;;;;;;;2.97;2.50;;;;;;;16.80;64.62;101010.53;6144864;28;20644;-50
2021/05/11 01:08:53;;;;;;;3.10;2.38;;;;;;;17.22;62.84;101003.94;6132951;28;20234;-48
2021/05/11 01:12:13;;;;;;;3.42;2.17;;;;;;;17.09;63.21;100985.91;6136088;28;20223;-50
2021/05/11 01:15:37;;;;;;;2.65;2.25;;;;;;;16.95;64.03;100987.31;6136199;28;20238;-50
2021/05/11 01:19:01;;;;;;;2.83;2.63;;;;;;;16.79;64.18;100990.41;6143216;28;20226;-48
2021/05/11 01:22:39;;;;;;;3.37;2.53;;;;;;;17.12;63.11;100995.50;6142280;28;20231;-53
2021/05/11 01:26:05;;;;;;;3.20;2.00;;;;;;;16.89;64.28;100997.13;6140024;28;21011;-48
2021/05/11 01:29:37;;;;;;;3.10;2.50;;;;;;;16.95;63.78;100979.41;6138936;28;20231;-49
2021/05/11 01:43:47;;;;;;;3.37;2.63;;;;;;;16.99;63.84;100983.66;6144538;28;20234;-50
2021/05/11 01:44:10;;;;;;;4.80;2.37;;;;;;;17.31;62.07;100948.34;6143942;28;20238;-48
2021/05/11 01:47:48;;;;;;;2.57;2.37;;;;;;;17.11;62.76;100960.41;6143191;28;20228;-54
2021/05/11 01:51:20;;;;;;;3.20;2.27;;;;;;;17.11;62.78;100973.56;6140680;28;20231;-51
2021/05/11 01:54:50;;;;;;;3.13;2.70;;;;;;;16.61;64.63;100985.72;6139144;28;20262;-50
2021/05/11 01:58:29;;;;;;;4.97;2.60;;;;;;;16.98;63.70;100985.41;6142013;28;20315;-51
2021/05/11 02:23:55;;;;;;;2.83;2.20;;;;;;;16.09;65.93;100967.13;6137138;28;20410;-53
2021/05/11 02:27:16;;;;;;;2.40;2.10;;;;;;;16.10;65.69;100955.72;6138227;28;20251;-46
2021/05/11 02:30:37;;;;;;;2.60;2.40;;;;;;;16.21;65.17;100964.16;6141654;28;20231;-49
2021/05/11 02:33:58;;;;;;;4.10;2.40;;;;;;;16.24;64.94;100977.19;6142478;28;20231;-47
2021/05/11 02:37:19;;;;;;;2.80;2.50;;;;;;;16.25;65.30;100981.56;6136809;28;20232;-49
2021/05/11 02:40:40;;;;;;;2.57;2.37;;;;;;;16.43;64.61;100974.00;6140899;28;20231;-48
2021/05/11 02:44:00;;;;;;;3.23;2.43;;;;;;;16.33;64.53;100955.91;6137566;28;20230;-52
2021/05/11 02:47:21;;;;;;;4.40;2.83;;;;;;;16.38;64.17;100949.63;6140341;28;20228;-50
2021/05/11 02:50:42;;;;;;;3.83;1.93;;;;;;;16.27;64.37;100927.19;6131541;28;20925;-48
2021/05/11 02:54:03;;;;;;;2.90;2.63;;;;;;;16.42;64.05;100938.09;6140737;28;20247;-50
2021/05/11 02:57:23;;;;;;;5.67;2.73;;;;;;;16.43;63.82;100939.84;6144136;28;20276;-51
2021/05/11 03:00:45;;;;;;;2.50;2.30;;;;;;;16.56;63.27;100948.22;6132667;28;20326;-48
2021/05/11 03:04:05;;;;;;;2.80;2.47;;;;;;;16.37;63.82;100930.38;6138629;28;20239;-46
2021/05/11 03:07:27;;;;;;;3.70;2.70;;;;;;;16.23;64.46;100909.78;6139910;28;20617;-51
2021/05/11 03:10:47;;;;;;;3.07;2.73;;;;;;;16.34;64.06;100897.19;6141066;28;20239;-48
2021/05/11 03:14:08;;;;;;;3.00;2.80;;;;;;;16.15;64.43;100888.16;6135602;28;20314;-51
2021/05/11 03:17:28;;;;;;;4.40;2.30;;;;;;;15.86;64.83;100883.78;6153651;28;20235;-52
2021/05/11 03:20:49;;;;;;;2.37;2.17;;;;;;;15.87;65.05;100901.25;6139736;28;20957;-49
2021/05/11 03:24:11;;;;;;;2.80;2.17;;;;;;;15.85;65.00;100963.47;6138645;28;20251;-50
2021/05/11 03:27:32;;;;;;;1.83;1.73;;;;;;;15.70;65.21;100997.09;6138627;28;20235;-50
2021/05/11 03:30:53;;;;;;;3.73;2.27;;;;;;;15.51;66.55;100994.13;6138932;28;20231;-47
2021/05/11 03:34:13;;;;;;;4.40;2.60;;;;;;;15.63;66.20;100999.94;6129717;28;20267;-51
2021/05/11 03:37:34;;;;;;;4.87;2.57;;;;;;;16.03;64.79;100996.22;6134793;28;20224;-53
2021/05/11 03:40:56;;;;;;;5.60;2.23;;;;;;;16.24;64.14;100958.78;6136478;28;20231;-53
2021/05/11 03:44:19;;;;;;;3.60;2.53;;;;;;;16.11;64.43;100932.06;6142130;28;20259;-49
2021/05/11 03:47:44;;;;;;;4.73;2.77;;;;;;;16.00;64.64;100920.16;6139824;28;20263;-48
2021/05/11 03:51:06;;;;;;;3.83;1.83;;;;;;;15.79;64.56;100943.50;6136070;28;20629;-49
2021/05/11 03:54:26;;;;;;;6.00;5.33;;;;;;;15.93;64.17;100954.44;6143036;28;20652;-49
2021/05/11 03:57:47;;;;;;;3.73;3.33;;;;;;;15.72;63.75;100960.28;6140340;28;20236;-49
2021/05/11 04:01:08;;;;;;;4.87;1.97;;;;;;;15.63;63.15;100956.16;6130457;28;20532;-52
2021/05/11 04:04:28;;;;;;;10.63;9.60;;;;;;;15.60;63.21;100973.75;6138285;28;20234;-49
2021/05/11 04:07:53;;;;;;;3.57;3.00;;;;;;;15.70;62.74;100985.72;6136205;28;20594;-48
2021/05/11 04:11:50;;;;;;;2.83;2.27;;;;;;;15.74;62.25;100974.25;6139882;28;20234;-50
2021/05/11 04:18:52;;;;;;;3.57;1.77;;;;;;;15.60;62.16;100971.13;6141125;28;20235;-53
2021/05/11 04:22:12;;;;;;;3.97;1.37;;;;;;;15.35;63.13;100961.28;6139394;28;20235;-49
2021/05/11 04:25:33;;;;;;;5.03;1.67;;;;;;;15.40;63.03;100938.44;6133535;28;20231;-51
2021/05/11 04:28:53;;;;;;;5.57;3.30;;;;;;;15.28;63.08;100955.34;6141183;28;20540;-53
2021/05/11 04:32:15;;;;;;;5.90;4.37;;;;;;;15.32;63.28;100967.50;6140236;28;20223;-50
2021/05/11 04:35:35;;;;;;;6.17;3.57;;;;;;;15.43;62.82;100956.72;6119841;28;20230;-51
2021/05/11 04:38:56;;;;;;;4.20;2.43;;;;;;;15.52;62.72;100964.31;6147299;28;20235;-50
2021/05/11 04:42:16;;;;;;;4.43;2.37;;;;;;;15.88;61.38;100971.28;6141201;28;20515;-48
2021/05/11 04:45:37;;;;;;;4.93;2.90;;;;;;;15.78;61.13;100996.94;6127061;28;20259;-55
2021/05/11 04:48:59;;;;;;;5.00;2.17;;;;;;;15.53;62.21;101012.44;6138493;28;20805;-50
2021/05/11 04:52:21;;;;;;;6.07;5.07;;;;;;;15.54;62.61;101015.00;6140336;28;20321;-53
2021/05/11 04:55:42;;;;;;;8.00;5.50;;;;;;;15.51;62.73;101024.75;6138477;28;20588;-49
2021/05/11 04:59:03;;;;;;;4.43;3.57;;;;;;;15.56;63.02;101018.44;6135762;28;20234;-50
2021/05/11 05:02:23;;;;;;;3.47;2.70;;;;;;;15.67;62.25;101017.31;6137632;28;20227;-48
2021/05/11 05:05:45;;;;;;;4.87;2.50;;;;;;;15.53;63.37;101008.06;6139146;28;20231;-52
2021/05/11 05:09:06;;;;;;;3.80;2.43;;;;;;;15.34;64.37;101009.44;6140327;28;20243;-48
2021/05/11 05:12:26;;;;;;;2.63;1.63;;;;;;;15.65;62.97;101021.75;6136130;28;20235;-51
2021/05/11 05:15:50;;;;;;;3.43;1.80;;;;;;;15.43;64.24;101019.72;6134781;28;20231;-49
2021/05/11 05:19:11;;;;;;;7.77;2.53;;;;;;;15.60;63.52;101021.88;6135646;28;20544;-50
2021/05/11 05:22:32;;;;;;;2.80;1.83;;;;;;;15.46;64.66;101016.97;6139202;28;20235;-48
2021/05/11 05:25:57;;;;;;;3.03;1.87;;;;;;;15.46;64.79;101016.13;6138619;28;20239;-51
2021/05/11 05:29:18;;;;;;;4.77;2.40;;;;;;;15.36;64.71;101010.25;6146893;28;20311;-53
2021/05/11 05:32:38;;;;;;;3.87;2.50;;;;;;;15.29;64.37;101008.69;6123484;28;20676;-52
2021/05/11 05:35:59;;;;;;;3.07;1.93;;;;;;;15.41;63.86;101018.00;6141664;28;20234;-49
2021/05/11 05:39:22;;;;;;;2.50;1.93;;;;;;;15.26;64.88;101019.28;6135069;28;20842;-50
2021/05/11 05:42:42;;;;;;;3.57;2.33;;;;;;;15.16;65.47;101031.75;6134566;28;20333;-52
2021/05/11 05:46:03;;;;;;;3.53;2.40;;;;;;;15.32;65.25;101030.47;6130910;28;20246;-45
2021/05/11 05:49:27;;;;;;;2.47;1.60;;;;;;;15.30;65.09;101032.25;6144377;28;20223;-51
2021/05/11 05:52:51;;;;;;;2.63;2.27;;;;;;;15.07;64.72;101013.63;6140303;28;20306;-48
2021/05/11 05:56:13;;;;;;;4.67;2.60;;;;;;;15.09;65.92;100996.94;6140426;28;20609;-46
2021/05/11 05:59:34;;;;;;;3.03;1.70;;;;;;;15.51;64.34;100978.38;6137693;28;20239;-49
2021/05/11 06:02:58;;;;;;;4.57;2.80;;;;;;;15.50;64.77;100962.66;6147871;28;20242;-47
2021/05/11 06:06:19;;;;;;;4.30;2.10;;;;;;;15.58;64.78;100978.19;6146087;28;20242;-50
2021/05/11 06:09:40;;;;;;;5.63;2.43;;;;;;;15.41;64.81;100986.50;6136699;28;20231;-52
2021/05/11 06:13:05;;;;;;;3.03;1.83;;;;;;;15.54;64.55;100988.75;6129058;28;20246;-51
2021/05/11 06:20:05;;;;;;;3.63;1.80;;;;;;;15.38;64.26;100987.47;6134314;28;20234;-48
2021/05/11 06:23:26;;;;;;;2.77;1.93;;;;;;;15.27;65.10;100994.75;6144137;28;20259;-49
2021/05/11 06:26:46;;;;;;;2.90;1.97;;;;;;;15.20;65.85;100982.69;6139182;28;20231;-48
2021/05/11 06:30:09;;;;;;;2.83;2.17;;;;;;;15.32;64.93;100987.63;6143781;28;20231;-49
2021/05/11 06:33:30;;;;;;;3.07;1.90;;;;;;;15.40;64.99;100985.66;6137913;28;20243;-47
2021/05/11 06:36:50;;;;;;;8.07;5.67;;;;;;;15.44;64.98;100968.94;6140478;28;20647;-48
2021/05/11 06:40:13;;;;;;;7.90;5.80;;;;;;;15.33;64.83;100963.09;6135964;28;20239;-46
2021/05/11 06:43:35;;;;;;;4.77;2.83;;;;;;;15.36;64.64;100952.53;6136399;28;20239;-43
2021/05/11 06:50:38;;;;;;;5.50;3.27;;;;;;;15.31;64.51;100957.88;6137900;28;20235;-43
2021/05/11 06:53:58;;;;;;;2.93;2.40;;;;;;;15.11;65.85;100966.28;6131403;28;20239;-54
2021/05/11 06:57:18;;;;;;;3.27;2.70;;;;;;;15.34;64.32;100967.47;6120885;28;20251;-46
2021/05/11 07:00:41;;;;;;;4.90;2.43;;;;;;;15.01;65.82;100951.69;6136956;28;20231;-49
2021/05/11 07:04:04;;;;;;;2.23;1.37;;;;;;;15.25;64.90;100944.09;6137254;28;20231;-46
2021/05/11 07:07:25;;;;;;;3.67;1.90;;;;;;;14.96;65.77;100950.94;6141473;28;20266;-46
2021/05/11 07:10:49;;;;;;;2.17;1.80;;;;;;;15.06;66.20;100934.09;6140190;28;20231;-51
2021/05/11 07:14:10;;;;;;;4.87;1.90;;;;;;;14.83;66.03;100936.41;6136662;28;20535;-46
2021/05/11 07:17:31;;;;;;;3.37;2.50;;;;;;;15.10;64.99;100934.84;6135968;28;20231;-47
2021/05/11 07:20:57;;;;;;;3.47;1.67;;;;;;;15.14;64.96;100926.88;6144018;28;20235;-46
2021/05/11 07:24:18;;;;;;;2.67;2.07;;;;;;;15.33;63.87;100919.38;6140239;28;20360;-52
2021/05/11 07:27:54;;;;;;;5.43;2.93;;;;;;;15.41;63.72;100913.03;6130130;28;20251;-48
2021/05/11 07:31:16;;;;;;;4.47;1.60;;;;;;;15.44;63.30;100919.06;6121089;28;20234;-48
2021/05/11 07:34:41;;;;;;;3.80;2.27;;;;;;;15.32;64.09;100914.16;6143426;28;20231;-46
2021/05/11 07:38:02;;;;;;;4.87;1.90;;;;;;;15.35;63.67;100903.56;6139576;28;20413;-46
2021/05/11 07:41:22;;;;;;;2.77;2.00;;;;;;;15.45;63.01;100893.69;6148600;28;20381;-45
2021/05/11 07:44:46;;;;;;;4.07;1.50;;;;;;;15.25;63.56;100871.47;6143192;28;20230;-45
2021/05/11 07:48:19;;;;;;;4.97;2.13;;;;;;;15.48;62.99;100883.94;6130209;28;20242;-47
2021/05/11 07:52:07;;;;;;;4.27;1.60;;;;;;;15.24;63.00;100874.16;6130765;28;20313;-46
2021/05/11 08:10:20;;;;;;;3.50;2.30;;;;;;;15.46;63.06;100888.38;6137913;28;20227;-44
2021/05/11 08:17:20;;;;;;;3.60;1.77;;;;;;;15.51;62.08;100901.41;6103808;28;20257;-50
2021/05/11 08:28:13;;;;;;;5.60;2.57;;;;;;;15.61;62.25;100899.38;6138723;28;20583;-48
2021/05/11 08:31:34;;;;;;;2.57;2.00;;;;;;;15.74;62.04;100879.75;6142029;28;20606;-46
2021/05/11 08:34:54;;;;;;;3.70;1.57;;;;;;;15.84;62.03;100870.72;6138307;28;20235;-51
2021/05/11 08:38:14;;;;;;;6.90;2.67;;;;;;;15.86;61.68;100874.16;6154352;28;20657;-48
2021/05/11 08:41:34;;;;;;;4.67;2.13;;;;;;;15.88;61.53;100877.59;6136184;28;20235;-51
2021/05/11 08:45:02;;;;;;;5.20;2.50;;;;;;;15.93;61.23;100867.78;6135216;28;20234;-50
2021/05/11 08:48:24;;;;;;;4.57;2.13;;;;;;;15.83;61.68;100858.47;6137008;28;20318;-48
2021/05/11 08:51:50;;;;;;;6.73;2.13;;;;;;;15.90;61.25;100870.53;6142638;28;20227;-46
2021/05/11 08:55:30;;;;;;;4.50;1.83;;;;;;;15.77;61.58;100857.81;6139872;28;20231;-45
2021/05/11 09:25:12;;;;;;;4.80;1.90;;;;;;;15.49;62.00;100743.09;6142733;28;20652;-52
2021/05/11 09:28:39;;;;;;;2.70;1.57;;;;;;;15.22;62.56;100760.50;6144138;28;20231;-52
2021/05/11 09:32:23;;;;;;;3.97;2.00;;;;;;;15.16;62.69;100746.69;6144789;28;20310;-50
2021/05/11 09:54:49;;;;;;;5.17;2.47;;;;;;;15.90;59.81;100786.47;6143214;28;20247;-51
2021/05/11 09:58:22;;;;;;;2.13;1.60;;;;;;;16.03;60.12;100778.19;6142539;28;20239;-48
2021/05/11 10:32:16;;;;;;;1.83;1.20;;;;;;;16.93;57.55;100732.22;6135877;28;20242;-49
2021/05/11 10:46:53;;;;;;;3.30;1.50;;;;;;;17.30;57.32;100783.47;6278518;28;20239;-52
2021/05/11 10:50:42;;;;;;;2.40;1.43;;;;;;;17.51;56.02;100792.31;6265051;28;20612;-51
2021/05/11 10:54:07;;;;;;;3.73;1.80;;;;;;;17.61;56.01;100803.34;6273460;28;20266;-47
2021/05/11 10:57:31;;;;;;;1.97;1.20;;;;;;;17.51;56.08;100813.38;6304378;28;20246;-52
2021/05/11 11:00:57;;;;;;;7.23;1.97;;;;;;;18.16;53.31;100816.16;6292985;28;20321;-47
2021/05/11 11:04:20;;;;;;;4.07;1.63;;;;;;;18.85;51.83;100810.63;6306392;28;20295;-49
2021/05/11 11:07:42;;;;;;;3.05;1.63;;;;;;;19.19;51.66;100809.13;6278214;28;20231;-48
2021/05/11 11:11:09;;;;;;;3.30;2.00;;;;;;;19.56;51.29;100796.88;6273866;28;20226;-47
2021/05/11 11:14:35;;;;;;;4.00;1.58;;;;;;;19.51;50.46;100799.75;6278122;28;20802;-52
2021/05/11 11:17:58;;;;;;;5.07;1.65;;;;;;;19.95;48.81;100791.53;6272758;28;20227;-51
2021/05/11 11:21:32;;;;;;;2.95;1.58;;;;;;;19.76;48.69;100796.00;6305032;27;20226;-46
2021/05/11 11:24:53;;;;;;;3.47;2.70;;;;;;;19.72;47.79;100794.44;6294095;27;20238;-49
2021/05/11 11:28:27;;;;;;;4.65;2.60;;;;;;;19.96;47.72;100787.09;6271146;28;20954;-50
2021/05/11 11:31:49;;;;;;;3.85;1.88;;;;;;;20.14;47.44;100765.06;6287268;28;20623;-51
2021/05/11 11:35:12;;;;;;;2.88;1.17;;;;;;;19.87;47.13;100764.59;6269436;28;21884;-50
2021/05/11 11:38:32;;;;;;;2.17;1.23;;;;;;;19.36;47.67;100764.34;6276090;28;20561;-50
2021/05/11 11:41:54;;;;;;;1.45;1.35;;;;;;;18.85;47.99;100781.63;6304625;27;20315;-51
2021/05/11 11:45:25;;;;;;;1.35;1.20;;;;;;;18.63;49.07;100787.81;6279801;28;20235;-52
2021/05/11 11:48:56;;;;;;;3.65;1.98;;;;;;;18.77;48.84;100795.13;6300798;28;20230;-50
2021/05/11 11:52:23;;;;;;;2.72;2.05;;;;;;;18.19;49.92;100798.44;6292118;28;20877;-51
2021/05/11 11:56:21;;;;;;;4.22;1.38;;;;;;;18.28;48.96;100800.69;6264425;28;20489;-51
2021/05/11 11:59:54;;;;;;;4.10;2.13;;;;;;;18.67;48.33;100781.47;6269482;28;20285;-51
2021/05/11 12:03:15;;;;;;;3.30;2.30;;;;;;;19.05;48.26;100792.13;6264562;28;20634;-52
2021/05/11 12:06:37;;;;;;;3.17;2.25;;;;;;;19.05;47.67;100792.13;6258271;28;20232;-49
2021/05/11 12:09:58;;;;;;;4.60;2.53;;;;;;;18.98;47.50;100779.28;6279193;28;20243;-49
2021/05/11 12:13:22;;;;;;;1.45;1.30;;;;;;;19.19;47.59;100761.63;6256524;28;20235;-50
2021/05/11 12:16:44;;;;;;;3.15;1.83;;;;;;;18.78;48.41;100757.25;6259487;28;20228;-48
2021/05/11 12:20:23;;;;;;;2.92;1.48;;;;;;;18.66;48.02;100757.78;6269137;28;20236;-50
2021/05/11 12:23:44;;;;;;;2.40;1.35;;;;;;;18.46;48.91;100734.94;6287395;28;21231;-53
2021/05/11 12:27:14;;;;;;;1.33;1.23;;;;;;;18.22;48.43;100735.06;6268334;28;22520;-47
2021/05/11 12:30:38;;;;;;;3.42;1.10;;;;;;;17.95;49.81;100744.09;6258676;28;20227;-48
2021/05/11 12:34:05;;;;;;;2.88;1.10;;;;;;;18.14;49.17;100745.03;6237692;28;20232;-50
2021/05/11 12:37:42;;;;;;;3.13;1.10;;;;;;;18.23;48.64;100749.94;6257844;28;20236;-49
2021/05/11 12:41:04;;;;;;;0.93;0.80;;;;;;;18.72;49.29;100740.84;6260716;28;20239;-56
2021/05/11 12:44:30;;;;;;;1.93;1.10;;;;;;;18.91;48.54;100730.38;6273860;28;20231;-56
2021/05/11 12:47:53;;;;;;;2.88;1.60;;;;;;;19.12;47.04;100729.38;6253039;28;21608;-57
2021/05/11 12:51:25;;;;;;;2.88;1.58;;;;;;;19.11;47.85;100732.09;6279311;28;20628;-58
2021/05/11 12:54:47;;;;;;;1.33;1.00;;;;;;;18.88;48.83;100720.78;6254815;28;20236;-56
2021/05/11 12:58:24;;;;;;;2.80;1.42;;;;;;;18.85;48.35;100723.56;6260229;28;20322;-48
2021/05/11 13:01:56;;;;;;;5.13;1.90;;;;;;;18.58;48.55;100710.66;6263096;28;20552;-47
2021/05/11 13:09:30;;;;;;;3.90;1.40;;;;;;;18.46;48.54;100693.59;6246777;28;20227;-46
2021/05/11 13:16:36;;;;;;;3.05;1.48;;;;;;;18.28;49.59;100694.38;6260416;28;20303;-47
2021/05/11 13:20:12;;;;;;;4.53;4.00;;;;;;;18.21;49.70;100699.06;6276799;28;20227;-51
2021/05/11 13:27:19;;;;;;;3.78;1.85;;;;;;;18.34;50.22;100719.63;6257193;28;20320;-46
2021/05/11 13:30:46;;;;;;;2.23;1.20;;;;;;;18.18;50.72;100711.53;6264255;28;20227;-54
2021/05/11 13:34:10;;;;;;;2.43;2.23;;;;;;;18.27;50.75;100711.13;6259278;28;20240;-51
2021/05/11 13:37:32;;;;;;;3.05;1.80;;;;;;;18.13;50.61;100713.50;6265688;28;20840;-48
2021/05/11 13:40:52;;;;;;;3.42;2.10;;;;;;;18.06;50.92;100724.28;6278505;28;20232;-53
2021/05/11 13:44:13;;;;;;;4.90;3.33;;;;;;;18.10;50.67;100723.22;6264719;28;20220;-50
2021/05/11 13:47:34;;;;;;;4.97;1.90;;;;;;;17.77;51.45;100720.19;6273910;28;20255;-49
2021/05/11 13:50:59;;;;;;;3.42;1.75;;;;;;;18.03;51.09;100726.19;6259293;28;20545;-49
2021/05/11 13:54:20;;;;;;;3.33;1.80;;;;;;;18.16;51.25;100740.56;6265304;28;20577;-50
2021/05/11 14:04:53;;;;;;;3.92;2.05;;;;;;;18.20;51.53;100734.25;6263154;28;20240;-50
2021/05/11 14:08:14;;;;;;;1.93;1.53;;;;;;;18.47;50.71;100736.63;6259233;28;20520;-50
2021/05/11 14:11:36;;;;;;;3.28;1.92;;;;;;;18.57;50.71;100731.81;6260652;28;20608;-49
2021/05/11 14:14:57;;;;;;;2.60;1.33;;;;;;;18.90;49.93;100742.69;6257379;28;20251;-50
2021/05/11 14:18:18;;;;;;;2.67;1.80;;;;;;;18.66;50.27;100740.19;6272260;28;20239;-49
2021/05/11 14:21:39;;;;;;;5.30;1.63;;;;;;;18.46;51.79;100740.22;6277405;28;20225;-51
2021/05/11 14:25:00;;;;;;;4.45;2.45;;;;;;;18.75;50.68;100746.84;6261126;28;20801;-51
2021/05/11 14:28:21;;;;;;;3.35;2.28;;;;;;;18.57;51.55;100737.97;6255786;28;20231;-47
2021/05/11 14:31:41;;;;;;;3.17;1.58;;;;;;;18.81;50.76;100745.75;6250908;28;20236;-54
2021/05/11 14:35:02;;;;;;;3.35;2.05;;;;;;;18.48;52.11;100746.28;6246132;28;20362;-48
2021/05/11 14:38:23;;;;;;;5.78;2.33;;;;;;;18.50;51.85;100752.34;6254750;28;22602;-48
2021/05/11 14:41:44;;;;;;;3.25;2.30;;;;;;;18.44;52.09;100744.69;6249760;28;20227;-50
2021/05/11 14:45:07;;;;;;;3.00;1.93;;;;;;;18.32;52.65;100740.81;6244182;28;20227;-49
2021/05/11 14:48:29;;;;;;;3.28;1.85;;;;;;;18.55;51.93;100734.50;6254286;28;20310;-52
2021/05/11 14:51:50;;;;;;;4.47;2.92;;;;;;;18.53;52.31;100733.72;6250715;28;20240;-48
2021/05/11 14:55:13;;;;;;;3.35;2.05;;;;;;;18.34;52.77;100745.97;6244198;28;20818;-47
2021/05/11 14:58:34;;;;;;;4.45;1.95;;;;;;;18.39;52.61;100738.75;6258525;28;20665;-50
2021/05/11 15:01:55;;;;;;;2.65;2.35;;;;;;;18.51;52.89;100740.84;6250302;28;21877;-47
2021/05/11 15:05:16;;;;;;;3.63;2.92;;;;;;;18.51;53.05;100732.94;6246464;28;20232;-50
2021/05/11 15:08:36;;;;;;;4.28;2.05;;;;;;;18.46;53.41;100732.28;6266271;28;20251;-47
2021/05/11 15:11:56;;;;;;;2.78;1.83;;;;;;;18.29;53.54;100743.56;6272406;28;20226;-48
2021/05/11 15:15:20;;;;;;;3.85;1.85;;;;;;;18.38;53.35;100758.09;6244139;28;20223;-46
2021/05/11 15:18:42;;;;;;;4.57;2.40;;;;;;;18.22;53.40;100764.06;6249013;28;20452;-47
2021/05/11 15:22:02;;;;;;;3.70;2.15;;;;;;;18.32;53.05;100753.97;6270165;28;20235;-48
2021/05/11 15:25:23;;;;;;;2.30;1.93;;;;;;;18.53;53.66;100746.91;6271478;28;20254;-50
2021/05/11 15:28:44;;;;;;;5.45;2.28;;;;;;;18.52;53.30;100750.47;6262645;28;20235;-50
2021/05/11 15:32:38;;;;;;;1.73;1.63;;;;;;;18.66;53.18;100741.97;6276004;28;20227;-49
2021/05/11 15:36:00;;;;;;;4.03;2.30;;;;;;;18.46;52.89;100734.94;6284630;28;20322;-51
2021/05/11 15:39:20;;;;;;;2.92;1.40;;;;;;;18.34;52.95;100731.03;6277369;28;20322;-49
2021/05/11 15:42:41;;;;;;;3.72;2.38;;;;;;;18.36;53.79;100733.59;6255890;28;20256;-45
2021/05/11 15:46:02;;;;;;;2.42;1.50;;;;;;;18.36;53.28;100733.59;6279621;28;20235;-47
2021/05/11 15:49:22;;;;;;;3.33;2.17;;;;;;;18.44;53.13;100726.22;6243464;28;20228;-47
2021/05/11 15:52:43;;;;;;;1.55;1.30;;;;;;;18.33;53.02;100724.03;6246633;28;20287;-48
2021/05/11 15:56:04;;;;;;;2.17;1.55;;;;;;;17.84;54.23;100715.56;6261939;28;20341;-44
2021/05/11 15:59:26;;;;;;;3.75;1.67;;;;;;;18.29;52.81;100710.13;6257494;28;20237;-49
2021/05/11 16:02:46;;;;;;;2.13;1.70;;;;;;;18.14;53.01;100717.84;6258909;28;20256;-49
2021/05/11 16:06:07;;;;;;;1.77;1.17;;;;;;;18.25;52.69;100711.19;6264171;28;20240;-47
2021/05/11 16:09:28;;;;;;;3.80;1.45;;;;;;;18.38;52.30;100701.00;6284157;28;20226;-47
2021/05/11 16:12:48;;;;;;;3.93;2.90;;;;;;;18.34;52.88;100698.53;6278114;28;20227;-46
2021/05/11 16:16:09;;;;;;;4.20;1.80;;;;;;;18.33;52.47;100702.09;6285049;28;20226;-48
2021/05/11 16:19:29;;;;;;;2.45;2.22;;;;;;;18.22;53.21;100694.66;6289828;28;20231;-48
2021/05/11 16:22:50;;;;;;;2.43;1.67;;;;;;;17.99;54.51;100687.72;6285971;28;20231;-49
2021/05/11 16:26:12;;;;;;;5.00;2.22;;;;;;;17.98;54.96;100692.13;6262279;28;20220;-47
2021/05/11 16:29:32;;;;;;;3.58;1.98;;;;;;;18.10;54.61;100693.41;6259609;28;20228;-48
2021/05/11 16:32:53;;;;;;;4.53;2.30;;;;;;;17.75;55.82;100687.78;6249134;28;20259;-46
2021/05/11 16:36:13;;;;;;;5.03;2.27;;;;;;;17.55;56.50;100682.50;6260678;28;20231;-47
2021/05/11 16:39:34;;;;;;;2.73;2.13;;;;;;;17.47;56.57;100686.28;6264488;28;20232;-52
2021/05/11 16:42:56;;;;;;;3.87;1.90;;;;;;;17.25;57.45;100686.28;6263866;28;20243;-53
2021/05/11 16:46:17;;;;;;;2.20;2.00;;;;;;;17.29;57.56;100686.97;6259604;28;20229;-48
2021/05/11 16:49:37;;;;;;;2.70;1.90;;;;;;;17.29;57.35;100672.06;6249446;28;20228;-46
2021/05/11 16:53:00;;;;;;;3.97;2.10;;;;;;;17.25;57.96;100674.88;6281220;28;20428;-51
2021/05/11 16:56:20;;;;;;;4.73;2.30;;;;;;;17.02;58.50;100676.63;6270682;28;20247;-53
2021/05/11 16:59:42;;;;;;;4.23;1.50;;;;;;;17.03;58.62;100674.84;6260476;28;20286;-50
2021/05/11 17:03:03;;;;;;;2.00;1.80;;;;;;;16.95;59.20;100677.78;6279893;28;20243;-47
2021/05/11 17:06:24;;;;;;;4.17;2.10;;;;;;;16.86;59.18;100678.09;6283976;28;20231;-48
2021/05/11 17:09:44;;;;;;;3.67;2.50;;;;;;;17.00;59.46;100683.72;6257204;28;20323;-52
2021/05/11 17:13:05;;;;;;;3.87;2.27;;;;;;;17.09;59.67;100678.09;6260297;28;20232;-48
2021/05/11 17:16:26;;;;;;;2.83;1.67;;;;;;;17.24;59.33;100673.16;6257838;28;20227;-48
2021/05/11 17:19:47;;;;;;;4.07;1.97;;;;;;;16.97;60.45;100668.03;6253176;28;20240;-51
2021/05/11 17:23:07;;;;;;;3.07;1.63;;;;;;;16.99;60.33;100658.31;6264415;28;20244;-51
2021/05/11 17:26:27;;;;;;;3.00;2.00;;;;;;;16.74;61.25;100664.47;6263995;28;20232;-50
2021/05/11 17:29:48;;;;;;;4.70;2.30;;;;;;;16.73;60.37;100662.75;6245133;28;20652;-52
2021/05/11 17:33:09;;;;;;;4.20;1.30;;;;;;;16.61;59.82;100657.94;6259089;28;21890;-48
2021/05/11 17:36:30;;;;;;;4.03;1.70;;;;;;;16.47;59.68;100665.47;6264238;28;20227;-49
2021/05/11 17:39:51;;;;;;;2.43;1.80;;;;;;;16.65;58.16;100664.81;6262154;28;20224;-51
2021/05/11 17:43:11;;;;;;;1.80;1.60;;;;;;;16.65;59.20;100667.44;6257027;28;20259;-49
2021/05/11 17:46:32;;;;;;;3.47;2.23;;;;;;;16.48;60.09;100667.22;6259391;28;20293;-47
2021/05/11 17:49:53;;;;;;;3.57;2.47;;;;;;;16.52;60.52;100668.81;6259686;28;20228;-49
2021/05/11 17:53:13;;;;;;;3.77;2.03;;;;;;;16.25;61.76;100671.50;6261509;28;20617;-51
2021/05/11 17:56:34;;;;;;;2.47;1.93;;;;;;;16.36;60.84;100683.41;6252146;28;20314;-51
2021/05/11 17:59:55;;;;;;;3.87;1.90;;;;;;;16.51;61.19;100683.69;6244181;28;20223;-50
2021/05/11 18:03:15;;;;;;;2.57;1.70;;;;;;;16.61;60.25;100681.59;6251280;28;20259;-46
2021/05/11 18:06:37;;;;;;;7.17;3.03;;;;;;;16.61;60.31;100694.75;6244957;28;20257;-53
2021/05/11 18:09:57;;;;;;;4.60;3.10;;;;;;;16.58;60.10;100689.63;6242917;28;20236;-48
2021/05/11 18:13:18;;;;;;;2.90;2.03;;;;;;;16.53;59.81;100695.00;6234543;28;20243;-51
2021/05/11 18:16:38;;;;;;;4.50;2.07;;;;;;;16.63;59.79;100692.91;6231511;28;20266;-49
2021/05/11 18:19:59;;;;;;;2.53;2.10;;;;;;;16.42;60.09;100699.81;6242566;28;20231;-50
2021/05/11 18:23:20;;;;;;;2.80;1.80;;;;;;;16.38;60.46;100698.22;6237763;28;20236;-46
2021/05/11 18:26:40;;;;;;;3.37;2.73;;;;;;;16.18;61.09;100701.50;6264093;28;20596;-48
2021/05/11 18:30:01;;;;;;;2.73;1.90;;;;;;;16.20;60.66;100704.94;6265234;28;20235;-49
2021/05/11 18:33:22;;;;;;;3.53;2.27;;;;;;;15.97;61.34;100697.84;6257795;28;20609;-49
2021/05/11 18:36:49;;;;;;;3.70;1.77;;;;;;;15.98;61.99;100698.72;6260062;28;22453;-56